sensor_id;sensor_type;location;lat;lon;timestamp;P1;durP1;ratioP1;P2;durP2;ratioP2
10571;SDS011;5334;48.928;12.704;2022-12-29T00:01:39;1999.90;;;999.90;;
10571;SDS011;5334;48.928;12.704;2022-12-29T00:04:05;1999.90;;;999.90;;
10571;SDS011;5334;48.928;12.704;2022-12-29T00:06:31;1999.90;;;999.90;;
10571;SDS011;5334;48.928;12.704;2022-12-29T00:08:57;1999.90;;;999.90;;
10571;SDS011;5334;48.928;12.704;2022-12-29T00:11:24;1999.90;;;999.90;;
10571;SDS011;5334;48.928;12.704;2022-12-29T00:13:53;1999.90;;;999.90;;
10571;SDS011;5334;48.928;12.704;2022-12-29T00:16:39;1999.90;;;999.90;;
10571;SDS011;5334;48.928;12.704;2022-12-29T00:19:06;1999.90;;;999.90;;
10571;SDS011;5334;48.928;12.704;2022-12-29T00:21:52;1999.90;;;999.90;;
10571;SDS011;5334;48.928;12.704;2022-12-29T00:24:35;1999.90;;;999.90;;
10571;SDS011;5334;48.928;12.704;2022-12-29T00:29:45;1999.90;;;999.90;;
10571;SDS011;5334;48.928;12.704;2022-12-29T00:32:29;1999.90;;;999.90;;
10571;SDS011;5334;48.928;12.704;2022-12-29T00:35:17;1999.90;;;999.90;;
10571;SDS011;5334;48.928;12.704;2022-12-29T00:37:48;1999.90;;;999.90;;
10571;SDS011;5334;48.928;12.704;2022-12-29T00:40:32;1999.90;;;999.90;;
10571;SDS011;5334;48.928;12.704;2022-12-29T00:43:16;1999.90;;;999.90;;
10571;SDS011;5334;48.928;12.704;2022-12-29T00:46:00;1999.90;;;999.90;;
10571;SDS011;5334;48.928;12.704;2022-12-29T00:48:26;1999.90;;;999.90;;
10571;SDS011;5334;48.928;12.704;2022-12-29T00:51:10;1999.90;;;999.90;;
10571;SDS011;5334;48.928;12.704;2022-12-29T00:53:35;1999.90;;;999.90;;
10571;SDS011;5334;48.928;12.704;2022-12-29T00:56:01;1999.90;;;999.90;;
10571;SDS011;5334;48.928;12.704;2022-12-29T00:58:27;1999.90;;;999.90;;
10571;SDS011;5334;48.928;12.704;2022-12-29T01:03:29;1999.90;;;999.90;;
10571;SDS011;5334;48.928;12.704;2022-12-29T01:05:54;1999.90;;;999.90;;
10571;SDS011;5334;48.928;12.704;2022-12-29T01:08:20;1999.90;;;999.90;;
10571;SDS011;5334;48.928;12.704;2022-12-29T01:10:46;1999.90;;;999.90;;
10571;SDS011;5334;48.928;12.704;2022-12-29T01:13:11;1999.90;;;999.90;;
10571;SDS011;5334;48.928;12.704;2022-12-29T01:15:37;1999.90;;;999.90;;
10571;SDS011;5334;48.928;12.704;2022-12-29T01:18:02;1999.90;;;999.90;;
10571;SDS011;5334;48.928;12.704;2022-12-29T01:20:28;1999.90;;;999.90;;
10571;SDS011;5334;48.928;12.704;2022-12-29T01:22:54;1999.90;;;999.90;;
10571;SDS011;5334;48.928;12.704;2022-12-29T01:25:19;1999.90;;;999.90;;
10571;SDS011;5334;48.928;12.704;2022-12-29T01:27:45;1999.90;;;999.90;;
10571;SDS011;5334;48.928;12.704;2022-12-29T01:30:11;1999.90;;;999.90;;
10571;SDS011;5334;48.928;12.704;2022-12-29T01:32:37;1999.90;;;999.90;;
10571;SDS011;5334;48.928;12.704;2022-12-29T01:35:03;1999.90;;;999.90;;
10571;SDS011;5334;48.928;12.704;2022-12-29T01:37:29;1999.90;;;999.90;;
10571;SDS011;5334;48.928;12.704;2022-12-29T01:39:54;1999.90;;;999.90;;
10571;SDS011;5334;48.928;12.704;2022-12-29T01:42:22;1999.90;;;999.90;;
10571;SDS011;5334;48.928;12.704;2022-12-29T01:47:26;1999.90;;;999.90;;
10571;SDS011;5334;48.928;12.704;2022-12-29T01:49:56;1999.90;;;999.90;;
10571;SDS011;5334;48.928;12.704;2022-12-29T01:52:24;1999.90;;;999.90;;
10571;SDS011;5334;48.928;12.704;2022-12-29T01:54:52;1999.90;;;999.90;;
10571;SDS011;5334;48.928;12.704;2022-12-29T01:57:21;1999.90;;;999.90;;
10571;SDS011;5334;48.928;12.704;2022-12-29T02:00:15;1999.90;;;999.90;;
10571;SDS011;5334;48.928;12.704;2022-12-29T02:02:47;1999.90;;;999.90;;
10571;SDS011;5334;48.928;12.704;2022-12-29T02:05:21;1999.90;;;999.90;;
10571;SDS011;5334;48.928;12.704;2022-12-29T02:07:51;1999.90;;;999.90;;
10571;SDS011;5334;48.928;12.704;2022-12-29T02:10:19;1999.90;;;999.90;;
10571;SDS011;5334;48.928;12.704;2022-12-29T02:12:46;1999.90;;;999.90;;
10571;SDS011;5334;48.928;12.704;2022-12-29T02:15:12;1999.90;;;999.90;;
10571;SDS011;5334;48.928;12.704;2022-12-29T02:20:32;1999.90;;;999.90;;
10571;SDS011;5334;48.928;12.704;2022-12-29T02:45:03;1999.90;;;999.90;;
10571;SDS011;5334;48.928;12.704;2022-12-29T02:47:45;1999.90;;;999.90;;
10571;SDS011;5334;48.928;12.704;2022-12-29T02:50:23;1999.90;;;999.90;;
10571;SDS011;5334;48.928;12.704;2022-12-29T02:52:59;1999.90;;;999.90;;
10571;SDS011;5334;48.928;12.704;2022-12-29T02:55:27;1999.90;;;999.90;;
10571;SDS011;5334;48.928;12.704;2022-12-29T03:00:33;1999.90;;;999.90;;
10571;SDS011;5334;48.928;12.704;2022-12-29T03:03:16;1999.90;;;999.90;;
10571;SDS011;5334;48.928;12.704;2022-12-29T03:06:05;1999.90;;;999.90;;
10571;SDS011;5334;48.928;12.704;2022-12-29T03:09:33;1999.90;;;999.90;;
10571;SDS011;5334;48.928;12.704;2022-12-29T03:12:06;1999.90;;;999.90;;
10571;SDS011;5334;48.928;12.704;2022-12-29T03:17:40;1999.90;;;999.90;;
10571;SDS011;5334;48.928;12.704;2022-12-29T03:20:26;1999.90;;;999.90;;
10571;SDS011;5334;48.928;12.704;2022-12-29T03:23:02;1999.90;;;999.90;;
10571;SDS011;5334;48.928;12.704;2022-12-29T03:25:32;1999.90;;;999.90;;
10571;SDS011;5334;48.928;12.704;2022-12-29T03:28:03;1999.90;;;999.90;;
10571;SDS011;5334;48.928;12.704;2022-12-29T03:30:32;1999.90;;;999.90;;
10571;SDS011;5334;48.928;12.704;2022-12-29T03:33:02;1999.90;;;999.90;;
10571;SDS011;5334;48.928;12.704;2022-12-29T03:35:30;1999.90;;;999.90;;
10571;SDS011;5334;48.928;12.704;2022-12-29T03:37:59;1999.90;;;999.90;;
10571;SDS011;5334;48.928;12.704;2022-12-29T03:40:35;1999.90;;;999.90;;
10571;SDS011;5334;48.928;12.704;2022-12-29T03:43:03;1999.90;;;999.90;;
10571;SDS011;5334;48.928;12.704;2022-12-29T03:45:30;1999.90;;;999.90;;
10571;SDS011;5334;48.928;12.704;2022-12-29T03:47:55;1999.90;;;999.90;;
10571;SDS011;5334;48.928;12.704;2022-12-29T03:50:21;1999.90;;;999.90;;
10571;SDS011;5334;48.928;12.704;2022-12-29T03:52:47;1999.90;;;999.90;;
10571;SDS011;5334;48.928;12.704;2022-12-29T03:55:12;1999.90;;;999.90;;
10571;SDS011;5334;48.928;12.704;2022-12-29T03:57:38;1999.90;;;999.90;;
10571;SDS011;5334;48.928;12.704;2022-12-29T04:00:04;1999.90;;;999.90;;
10571;SDS011;5334;48.928;12.704;2022-12-29T04:02:31;1999.90;;;999.90;;
10571;SDS011;5334;48.928;12.704;2022-12-29T04:04:57;1999.90;;;999.90;;
10571;SDS011;5334;48.928;12.704;2022-12-29T04:07:22;1999.90;;;999.90;;
10571;SDS011;5334;48.928;12.704;2022-12-29T04:09:48;1999.90;;;999.90;;
10571;SDS011;5334;48.928;12.704;2022-12-29T04:12:13;1999.90;;;999.90;;
10571;SDS011;5334;48.928;12.704;2022-12-29T04:14:39;1999.90;;;999.90;;
10571;SDS011;5334;48.928;12.704;2022-12-29T04:17:05;1999.90;;;999.90;;
10571;SDS011;5334;48.928;12.704;2022-12-29T04:19:31;1999.90;;;999.90;;
10571;SDS011;5334;48.928;12.704;2022-12-29T04:21:57;1999.90;;;999.90;;
10571;SDS011;5334;48.928;12.704;2022-12-29T04:24:23;1999.90;;;999.90;;
10571;SDS011;5334;48.928;12.704;2022-12-29T04:26:48;1999.90;;;999.90;;
10571;SDS011;5334;48.928;12.704;2022-12-29T04:29:14;1999.90;;;999.90;;
10571;SDS011;5334;48.928;12.704;2022-12-29T04:31:40;1999.90;;;999.90;;
10571;SDS011;5334;48.928;12.704;2022-12-29T04:34:05;1999.90;;;999.90;;
10571;SDS011;5334;48.928;12.704;2022-12-29T04:36:31;1999.90;;;999.90;;
10571;SDS011;5334;48.928;12.704;2022-12-29T04:38:57;1999.90;;;999.90;;
10571;SDS011;5334;48.928;12.704;2022-12-29T04:41:23;1999.90;;;999.90;;
10571;SDS011;5334;48.928;12.704;2022-12-29T04:43:49;1999.90;;;999.90;;
10571;SDS011;5334;48.928;12.704;2022-12-29T04:46:15;1999.90;;;999.90;;
10571;SDS011;5334;48.928;12.704;2022-12-29T04:48:40;1999.90;;;999.90;;
10571;SDS011;5334;48.928;12.704;2022-12-29T04:51:06;1999.90;;;999.90;;
10571;SDS011;5334;48.928;12.704;2022-12-29T04:53:31;1999.90;;;999.90;;
10571;SDS011;5334;48.928;12.704;2022-12-29T04:55:57;1999.90;;;999.90;;
10571;SDS011;5334;48.928;12.704;2022-12-29T04:58:23;1999.90;;;999.90;;
10571;SDS011;5334;48.928;12.704;2022-12-29T05:00:49;1999.90;;;999.90;;
10571;SDS011;5334;48.928;12.704;2022-12-29T05:03:16;1999.90;;;999.90;;
10571;SDS011;5334;48.928;12.704;2022-12-29T05:05:42;1999.90;;;999.90;;
10571;SDS011;5334;48.928;12.704;2022-12-29T05:08:08;1999.90;;;999.90;;
10571;SDS011;5334;48.928;12.704;2022-12-29T05:10:33;1999.90;;;999.90;;
10571;SDS011;5334;48.928;12.704;2022-12-29T05:12:59;1999.90;;;999.90;;
10571;SDS011;5334;48.928;12.704;2022-12-29T05:15:26;1999.90;;;999.90;;
10571;SDS011;5334;48.928;12.704;2022-12-29T05:17:51;1999.90;;;999.90;;
10571;SDS011;5334;48.928;12.704;2022-12-29T05:20:17;1999.90;;;999.90;;
10571;SDS011;5334;48.928;12.704;2022-12-29T05:22:43;1999.90;;;999.90;;
10571;SDS011;5334;48.928;12.704;2022-12-29T05:25:09;1999.90;;;999.90;;
10571;SDS011;5334;48.928;12.704;2022-12-29T05:27:35;1999.90;;;999.90;;
10571;SDS011;5334;48.928;12.704;2022-12-29T05:30:01;1999.90;;;999.90;;
10571;SDS011;5334;48.928;12.704;2022-12-29T05:32:27;1999.90;;;999.90;;
10571;SDS011;5334;48.928;12.704;2022-12-29T05:34:53;1999.90;;;999.90;;
10571;SDS011;5334;48.928;12.704;2022-12-29T05:37:18;1999.90;;;999.90;;
10571;SDS011;5334;48.928;12.704;2022-12-29T05:39:44;1999.90;;;999.90;;
10571;SDS011;5334;48.928;12.704;2022-12-29T05:42:10;1999.90;;;999.90;;
10571;SDS011;5334;48.928;12.704;2022-12-29T05:44:35;1999.90;;;999.90;;
10571;SDS011;5334;48.928;12.704;2022-12-29T05:47:01;1999.90;;;999.90;;
10571;SDS011;5334;48.928;12.704;2022-12-29T05:49:27;1999.90;;;999.90;;
10571;SDS011;5334;48.928;12.704;2022-12-29T05:51:53;1999.90;;;999.90;;
10571;SDS011;5334;48.928;12.704;2022-12-29T05:54:19;1999.90;;;999.90;;
10571;SDS011;5334;48.928;12.704;2022-12-29T05:56:44;1999.90;;;999.90;;
10571;SDS011;5334;48.928;12.704;2022-12-29T05:59:10;1999.90;;;999.90;;
10571;SDS011;5334;48.928;12.704;2022-12-29T06:01:36;1999.90;;;999.90;;
10571;SDS011;5334;48.928;12.704;2022-12-29T06:04:01;1999.90;;;999.90;;
10571;SDS011;5334;48.928;12.704;2022-12-29T06:06:27;1999.90;;;999.90;;
10571;SDS011;5334;48.928;12.704;2022-12-29T06:08:53;1999.90;;;999.90;;
10571;SDS011;5334;48.928;12.704;2022-12-29T06:11:18;1999.90;;;999.90;;
10571;SDS011;5334;48.928;12.704;2022-12-29T06:13:44;1999.90;;;999.90;;
10571;SDS011;5334;48.928;12.704;2022-12-29T06:16:10;1999.90;;;999.90;;
10571;SDS011;5334;48.928;12.704;2022-12-29T06:18:35;1999.90;;;999.90;;
10571;SDS011;5334;48.928;12.704;2022-12-29T06:21:01;1999.90;;;999.90;;
10571;SDS011;5334;48.928;12.704;2022-12-29T06:23:28;1999.90;;;999.90;;
10571;SDS011;5334;48.928;12.704;2022-12-29T06:25:54;1999.90;;;999.90;;
10571;SDS011;5334;48.928;12.704;2022-12-29T06:28:20;1999.90;;;999.90;;
10571;SDS011;5334;48.928;12.704;2022-12-29T06:30:46;1999.90;;;999.90;;
10571;SDS011;5334;48.928;12.704;2022-12-29T06:33:12;1999.90;;;999.90;;
10571;SDS011;5334;48.928;12.704;2022-12-29T06:35:38;1999.90;;;999.90;;
10571;SDS011;5334;48.928;12.704;2022-12-29T06:38:04;1999.90;;;999.90;;
10571;SDS011;5334;48.928;12.704;2022-12-29T06:40:30;1999.90;;;999.90;;
10571;SDS011;5334;48.928;12.704;2022-12-29T06:42:56;1999.90;;;999.90;;
10571;SDS011;5334;48.928;12.704;2022-12-29T06:45:22;1999.90;;;999.90;;
10571;SDS011;5334;48.928;12.704;2022-12-29T06:47:47;1999.90;;;999.90;;
10571;SDS011;5334;48.928;12.704;2022-12-29T06:50:13;1999.90;;;999.90;;
10571;SDS011;5334;48.928;12.704;2022-12-29T06:52:39;1999.90;;;999.90;;
10571;SDS011;5334;48.928;12.704;2022-12-29T06:55:05;1999.90;;;999.90;;
10571;SDS011;5334;48.928;12.704;2022-12-29T06:57:31;1999.90;;;999.90;;
10571;SDS011;5334;48.928;12.704;2022-12-29T06:59:56;1999.90;;;999.90;;
10571;SDS011;5334;48.928;12.704;2022-12-29T07:02:22;1999.90;;;999.90;;
10571;SDS011;5334;48.928;12.704;2022-12-29T07:04:50;1999.90;;;999.90;;
10571;SDS011;5334;48.928;12.704;2022-12-29T07:07:17;1999.90;;;999.90;;
10571;SDS011;5334;48.928;12.704;2022-12-29T07:09:43;1999.90;;;999.90;;
10571;SDS011;5334;48.928;12.704;2022-12-29T07:12:09;1999.90;;;999.90;;
10571;SDS011;5334;48.928;12.704;2022-12-29T07:14:35;1999.90;;;999.90;;
10571;SDS011;5334;48.928;12.704;2022-12-29T07:17:01;1999.90;;;999.90;;
10571;SDS011;5334;48.928;12.704;2022-12-29T07:19:30;1999.90;;;999.90;;
10571;SDS011;5334;48.928;12.704;2022-12-29T07:21:56;1999.90;;;999.90;;
10571;SDS011;5334;48.928;12.704;2022-12-29T07:24:21;1999.90;;;999.90;;
10571;SDS011;5334;48.928;12.704;2022-12-29T07:26:47;1999.90;;;999.90;;
10571;SDS011;5334;48.928;12.704;2022-12-29T07:29:13;1999.90;;;999.90;;
10571;SDS011;5334;48.928;12.704;2022-12-29T07:31:38;1999.90;;;999.90;;
10571;SDS011;5334;48.928;12.704;2022-12-29T07:34:04;1999.90;;;999.90;;
10571;SDS011;5334;48.928;12.704;2022-12-29T07:36:30;1999.90;;;999.90;;
10571;SDS011;5334;48.928;12.704;2022-12-29T07:38:55;1999.90;;;999.90;;
10571;SDS011;5334;48.928;12.704;2022-12-29T07:41:21;1999.90;;;999.90;;
10571;SDS011;5334;48.928;12.704;2022-12-29T07:43:47;1999.90;;;999.90;;
10571;SDS011;5334;48.928;12.704;2022-12-29T07:46:13;1999.90;;;999.90;;
10571;SDS011;5334;48.928;12.704;2022-12-29T07:48:39;1999.90;;;999.90;;
10571;SDS011;5334;48.928;12.704;2022-12-29T07:51:05;1999.90;;;999.90;;
10571;SDS011;5334;48.928;12.704;2022-12-29T07:53:31;1999.90;;;999.90;;
10571;SDS011;5334;48.928;12.704;2022-12-29T07:55:57;1999.90;;;999.90;;
10571;SDS011;5334;48.928;12.704;2022-12-29T07:58:22;1999.90;;;999.90;;
10571;SDS011;5334;48.928;12.704;2022-12-29T08:00:52;1999.90;;;999.90;;
10571;SDS011;5334;48.928;12.704;2022-12-29T08:03:19;1999.90;;;999.90;;
10571;SDS011;5334;48.928;12.704;2022-12-29T08:05:45;1999.90;;;999.90;;
10571;SDS011;5334;48.928;12.704;2022-12-29T08:08:10;1999.90;;;999.90;;
10571;SDS011;5334;48.928;12.704;2022-12-29T08:10:36;1999.90;;;999.90;;
10571;SDS011;5334;48.928;12.704;2022-12-29T08:13:02;1999.90;;;999.90;;
10571;SDS011;5334;48.928;12.704;2022-12-29T08:15:27;1999.90;;;999.90;;
10571;SDS011;5334;48.928;12.704;2022-12-29T08:17:53;1999.90;;;999.90;;
10571;SDS011;5334;48.928;12.704;2022-12-29T08:20:19;1999.90;;;999.90;;
10571;SDS011;5334;48.928;12.704;2022-12-29T08:22:44;1999.90;;;999.90;;
10571;SDS011;5334;48.928;12.704;2022-12-29T08:25:10;1999.90;;;999.90;;
10571;SDS011;5334;48.928;12.704;2022-12-29T08:27:36;1999.90;;;999.90;;
10571;SDS011;5334;48.928;12.704;2022-12-29T08:30:01;1999.90;;;999.90;;
10571;SDS011;5334;48.928;12.704;2022-12-29T08:32:27;1999.90;;;999.90;;
10571;SDS011;5334;48.928;12.704;2022-12-29T08:34:53;1999.90;;;999.90;;
10571;SDS011;5334;48.928;12.704;2022-12-29T08:37:19;1999.90;;;999.90;;
10571;SDS011;5334;48.928;12.704;2022-12-29T08:39:46;1999.90;;;999.90;;
10571;SDS011;5334;48.928;12.704;2022-12-29T08:42:11;1999.90;;;999.90;;
10571;SDS011;5334;48.928;12.704;2022-12-29T08:44:37;1999.90;;;999.90;;
10571;SDS011;5334;48.928;12.704;2022-12-29T08:47:03;1999.90;;;999.90;;
10571;SDS011;5334;48.928;12.704;2022-12-29T08:49:28;1999.90;;;999.90;;
10571;SDS011;5334;48.928;12.704;2022-12-29T08:51:54;1999.90;;;999.90;;
10571;SDS011;5334;48.928;12.704;2022-12-29T08:54:20;1999.90;;;999.90;;
10571;SDS011;5334;48.928;12.704;2022-12-29T08:56:45;1999.90;;;999.90;;
10571;SDS011;5334;48.928;12.704;2022-12-29T08:59:11;1999.90;;;999.90;;
10571;SDS011;5334;48.928;12.704;2022-12-29T09:01:37;1999.90;;;999.90;;
10571;SDS011;5334;48.928;12.704;2022-12-29T09:04:05;1999.90;;;999.90;;
10571;SDS011;5334;48.928;12.704;2022-12-29T09:06:31;1999.90;;;999.90;;
10571;SDS011;5334;48.928;12.704;2022-12-29T09:08:57;1999.90;;;999.90;;
10571;SDS011;5334;48.928;12.704;2022-12-29T09:11:23;1999.90;;;999.90;;
10571;SDS011;5334;48.928;12.704;2022-12-29T09:13:49;1999.90;;;999.90;;
10571;SDS011;5334;48.928;12.704;2022-12-29T09:16:16;1999.90;;;999.90;;
10571;SDS011;5334;48.928;12.704;2022-12-29T09:18:42;1999.90;;;999.90;;
10571;SDS011;5334;48.928;12.704;2022-12-29T09:21:09;1999.90;;;999.90;;
10571;SDS011;5334;48.928;12.704;2022-12-29T09:23:36;1999.90;;;999.90;;
10571;SDS011;5334;48.928;12.704;2022-12-29T09:26:02;1999.90;;;999.90;;
10571;SDS011;5334;48.928;12.704;2022-12-29T09:28:28;1999.90;;;999.90;;
10571;SDS011;5334;48.928;12.704;2022-12-29T09:30:55;1999.90;;;999.90;;
10571;SDS011;5334;48.928;12.704;2022-12-29T09:33:22;1999.90;;;999.90;;
10571;SDS011;5334;48.928;12.704;2022-12-29T09:35:51;1999.90;;;999.90;;
10571;SDS011;5334;48.928;12.704;2022-12-29T09:38:19;1999.90;;;999.90;;
10571;SDS011;5334;48.928;12.704;2022-12-29T09:40:45;1999.90;;;999.90;;
10571;SDS011;5334;48.928;12.704;2022-12-29T09:46:14;1999.90;;;999.90;;
10571;SDS011;5334;48.928;12.704;2022-12-29T09:51:50;1999.90;;;999.90;;
10571;SDS011;5334;48.928;12.704;2022-12-29T09:54:30;1999.90;;;999.90;;
10571;SDS011;5334;48.928;12.704;2022-12-29T09:57:26;1999.90;;;999.90;;
10571;SDS011;5334;48.928;12.704;2022-12-29T10:00:17;1999.90;;;999.90;;
10571;SDS011;5334;48.928;12.704;2022-12-29T10:25:24;1999.90;;;999.90;;
10571;SDS011;5334;48.928;12.704;2022-12-29T10:27:53;1999.90;;;999.90;;
10571;SDS011;5334;48.928;12.704;2022-12-29T10:30:24;1999.90;;;999.90;;
10571;SDS011;5334;48.928;12.704;2022-12-29T10:32:51;1999.90;;;999.90;;
10571;SDS011;5334;48.928;12.704;2022-12-29T10:35:22;1999.90;;;999.90;;
10571;SDS011;5334;48.928;12.704;2022-12-29T10:38:10;1999.90;;;999.90;;
10571;SDS011;5334;48.928;12.704;2022-12-29T10:43:28;1999.90;;;999.90;;
10571;SDS011;5334;48.928;12.704;2022-12-29T10:46:02;1999.90;;;999.90;;
10571;SDS011;5334;48.928;12.704;2022-12-29T10:48:34;1999.90;;;999.90;;
10571;SDS011;5334;48.928;12.704;2022-12-29T10:51:04;1999.90;;;999.90;;
10571;SDS011;5334;48.928;12.704;2022-12-29T10:53:40;1999.90;;;999.90;;
10571;SDS011;5334;48.928;12.704;2022-12-29T10:56:13;1999.90;;;999.90;;
10571;SDS011;5334;48.928;12.704;2022-12-29T10:59:01;1999.90;;;999.90;;
10571;SDS011;5334;48.928;12.704;2022-12-29T11:01:38;1999.90;;;999.90;;
10571;SDS011;5334;48.928;12.704;2022-12-29T11:07:23;1999.90;;;999.90;;
10571;SDS011;5334;48.928;12.704;2022-12-29T11:09:50;1999.90;;;999.90;;
10571;SDS011;5334;48.928;12.704;2022-12-29T11:14:45;1999.90;;;999.90;;
10571;SDS011;5334;48.928;12.704;2022-12-29T11:17:14;1999.90;;;999.90;;
10571;SDS011;5334;48.928;12.704;2022-12-29T11:19:43;1999.90;;;999.90;;
10571;SDS011;5334;48.928;12.704;2022-12-29T11:22:13;1999.90;;;999.90;;
10571;SDS011;5334;48.928;12.704;2022-12-29T11:24:46;1999.90;;;999.90;;
10571;SDS011;5334;48.928;12.704;2022-12-29T11:27:17;1999.90;;;999.90;;
10571;SDS011;5334;48.928;12.704;2022-12-29T11:29:43;1999.90;;;999.90;;
10571;SDS011;5334;48.928;12.704;2022-12-29T11:32:16;1999.90;;;999.90;;
10571;SDS011;5334;48.928;12.704;2022-12-29T11:34:50;1999.90;;;999.90;;
10571;SDS011;5334;48.928;12.704;2022-12-29T11:37:17;1999.90;;;999.90;;
10571;SDS011;5334;48.928;12.704;2022-12-29T11:39:54;1999.90;;;999.90;;
10571;SDS011;5334;48.928;12.704;2022-12-29T11:42:35;1999.90;;;999.90;;
10571;SDS011;5334;48.928;12.704;2022-12-29T11:45:04;1999.90;;;999.90;;
10571;SDS011;5334;48.928;12.704;2022-12-29T11:47:31;1999.90;;;999.90;;
10571;SDS011;5334;48.928;12.704;2022-12-29T11:49:59;1999.90;;;999.90;;
10571;SDS011;5334;48.928;12.704;2022-12-29T11:52:28;1999.90;;;999.90;;
10571;SDS011;5334;48.928;12.704;2022-12-29T11:54:58;1999.90;;;999.90;;
10571;SDS011;5334;48.928;12.704;2022-12-29T11:57:26;1999.90;;;999.90;;
10571;SDS011;5334;48.928;12.704;2022-12-29T11:59:53;1999.90;;;999.90;;
10571;SDS011;5334;48.928;12.704;2022-12-29T12:05:01;1999.90;;;999.90;;
10571;SDS011;5334;48.928;12.704;2022-12-29T12:07:42;1999.90;;;999.90;;
10571;SDS011;5334;48.928;12.704;2022-12-29T12:10:17;1999.90;;;999.90;;
10571;SDS011;5334;48.928;12.704;2022-12-29T12:13:22;1999.90;;;999.90;;
10571;SDS011;5334;48.928;12.704;2022-12-29T12:15:51;1999.90;;;999.90;;
10571;SDS011;5334;48.928;12.704;2022-12-29T12:22:01;1999.90;;;999.90;;
10571;SDS011;5334;48.928;12.704;2022-12-29T12:27:02;1999.90;;;999.90;;
10571;SDS011;5334;48.928;12.704;2022-12-29T12:35:11;1999.90;;;999.90;;
10571;SDS011;5334;48.928;12.704;2022-12-29T12:40:40;1999.90;;;999.90;;
10571;SDS011;5334;48.928;12.704;2022-12-29T12:46:01;1999.90;;;999.90;;
10571;SDS011;5334;48.928;12.704;2022-12-29T12:56:54;1999.90;;;999.90;;
10571;SDS011;5334;48.928;12.704;2022-12-29T13:18:28;1999.90;;;999.90;;
10571;SDS011;5334;48.928;12.704;2022-12-29T13:21:32;1999.90;;;999.90;;
10571;SDS011;5334;48.928;12.704;2022-12-29T13:32:33;1999.90;;;999.90;;
10571;SDS011;5334;48.928;12.704;2022-12-29T13:35:22;1999.90;;;999.90;;
10571;SDS011;5334;48.928;12.704;2022-12-29T13:38:11;1999.90;;;999.90;;
10571;SDS011;5334;48.928;12.704;2022-12-29T13:40:55;22.37;;;21.47;;
10571;SDS011;5334;48.928;12.704;2022-12-29T13:43:29;22.00;;;21.00;;
10571;SDS011;5334;48.928;12.704;2022-12-29T13:46:02;36.63;;;35.00;;
10571;SDS011;5334;48.928;12.704;2022-12-29T13:51:10;20.87;;;19.97;;
10571;SDS011;5334;48.928;12.704;2022-12-29T13:56:36;22.30;;;21.27;;
10571;SDS011;5334;48.928;12.704;2022-12-29T14:02:08;28.00;;;26.50;;
10571;SDS011;5334;48.928;12.704;2022-12-29T14:05:04;27.23;;;26.03;;
10571;SDS011;5334;48.928;12.704;2022-12-29T14:08:01;20.90;;;20.03;;
10571;SDS011;5334;48.928;12.704;2022-12-29T14:10:31;31.53;;;30.13;;
10571;SDS011;5334;48.928;12.704;2022-12-29T14:13:11;23.93;;;22.93;;
10571;SDS011;5334;48.928;12.704;2022-12-29T14:15:40;25.30;;;24.20;;
10571;SDS011;5334;48.928;12.704;2022-12-29T14:20:50;30.27;;;28.97;;
10571;SDS011;5334;48.928;12.704;2022-12-29T14:28:37;30.60;;;29.27;;
10571;SDS011;5334;48.928;12.704;2022-12-29T14:31:07;33.73;;;32.27;;
10571;SDS011;5334;48.928;12.704;2022-12-29T14:36:37;36.17;;;34.57;;
10571;SDS011;5334;48.928;12.704;2022-12-29T14:47:15;34.47;;;32.97;;
10571;SDS011;5334;48.928;12.704;2022-12-29T14:49:46;32.57;;;31.07;;
10571;SDS011;5334;48.928;12.704;2022-12-29T14:52:20;39.80;;;37.97;;
10571;SDS011;5334;48.928;12.704;2022-12-29T14:54:47;33.23;;;31.73;;
10571;SDS011;5334;48.928;12.704;2022-12-29T14:57:29;26.10;;;25.00;;
10571;SDS011;5334;48.928;12.704;2022-12-29T15:00:12;27.57;;;26.40;;
10571;SDS011;5334;48.928;12.704;2022-12-29T15:02:44;29.30;;;28.07;;
10571;SDS011;5334;48.928;12.704;2022-12-29T15:05:30;30.00;;;28.70;;
10571;SDS011;5334;48.928;12.704;2022-12-29T15:08:03;1347.07;;;679.50;;
10571;SDS011;5334;48.928;12.704;2022-12-29T15:10:32;1999.90;;;999.90;;
10571;SDS011;5334;48.928;12.704;2022-12-29T15:13:03;1341.03;;;674.00;;
10571;SDS011;5334;48.928;12.704;2022-12-29T15:15:35;1999.90;;;999.90;;
10571;SDS011;5334;48.928;12.704;2022-12-29T15:21:05;1999.90;;;999.90;;
10571;SDS011;5334;48.928;12.704;2022-12-29T15:23:32;25.40;;;24.30;;
10571;SDS011;5334;48.928;12.704;2022-12-29T15:28:26;23.93;;;22.93;;
10571;SDS011;5334;48.928;12.704;2022-12-29T15:30:56;27.63;;;26.43;;
10571;SDS011;5334;48.928;12.704;2022-12-29T15:33:29;24.03;;;23.03;;
10571;SDS011;5334;48.928;12.704;2022-12-29T15:35:55;23.43;;;22.43;;
10571;SDS011;5334;48.928;12.704;2022-12-29T15:38:28;22.17;;;21.23;;
10571;SDS011;5334;48.928;12.704;2022-12-29T15:40:55;27.53;;;26.33;;
10571;SDS011;5334;48.928;12.704;2022-12-29T15:46:02;25.37;;;24.27;;
10571;SDS011;5334;48.928;12.704;2022-12-29T15:48:28;23.93;;;22.93;;
10571;SDS011;5334;48.928;12.704;2022-12-29T15:50:55;26.27;;;25.17;;
10571;SDS011;5334;48.928;12.704;2022-12-29T15:53:24;25.47;;;24.37;;
10571;SDS011;5334;48.928;12.704;2022-12-29T15:55:55;27.23;;;26.07;;
10571;SDS011;5334;48.928;12.704;2022-12-29T15:58:25;26.20;;;25.10;;
10571;SDS011;5334;48.928;12.704;2022-12-29T16:00:53;23.80;;;22.80;;
10571;SDS011;5334;48.928;12.704;2022-12-29T16:03:21;24.70;;;23.70;;
10571;SDS011;5334;48.928;12.704;2022-12-29T16:05:51;24.07;;;23.07;;
10571;SDS011;5334;48.928;12.704;2022-12-29T16:08:27;24.97;;;23.87;;
10571;SDS011;5334;48.928;12.704;2022-12-29T16:10:53;29.13;;;27.90;;
10571;SDS011;5334;48.928;12.704;2022-12-29T16:16:16;24.13;;;23.13;;
10571;SDS011;5334;48.928;12.704;2022-12-29T16:18:53;25.30;;;24.20;;
10571;SDS011;5334;48.928;12.704;2022-12-29T16:21:21;25.97;;;24.87;;
10571;SDS011;5334;48.928;12.704;2022-12-29T16:23:54;23.77;;;22.77;;
10571;SDS011;5334;48.928;12.704;2022-12-29T16:26:22;27.33;;;26.13;;
10571;SDS011;5334;48.928;12.704;2022-12-29T16:29:07;24.20;;;23.20;;
10571;SDS011;5334;48.928;12.704;2022-12-29T16:34:24;26.30;;;25.20;;
10571;SDS011;5334;48.928;12.704;2022-12-29T16:36:57;25.63;;;24.53;;
10571;SDS011;5334;48.928;12.704;2022-12-29T16:39:42;31.83;;;30.33;;
10571;SDS011;5334;48.928;12.704;2022-12-29T16:50:31;22.87;;;21.90;;
10571;SDS011;5334;48.928;12.704;2022-12-29T16:52:58;24.40;;;23.40;;
10571;SDS011;5334;48.928;12.704;2022-12-29T16:55:25;24.23;;;23.23;;
10571;SDS011;5334;48.928;12.704;2022-12-29T16:57:51;31.23;;;29.73;;
10571;SDS011;5334;48.928;12.704;2022-12-29T17:00:21;26.63;;;25.43;;
10571;SDS011;5334;48.928;12.704;2022-12-29T17:02:49;29.87;;;28.47;;
10571;SDS011;5334;48.928;12.704;2022-12-29T17:05:19;28.00;;;26.60;;
10571;SDS011;5334;48.928;12.704;2022-12-29T17:07:45;27.43;;;26.23;;